createdAt,value
2022-08-09T00:00:20.255Z,102356.00
2022-08-09T00:02:49.781Z,102347.00
2022-08-09T00:06:15.554Z,102358.00
2022-08-09T00:08:12.977Z,102359.00
2022-08-09T00:11:05.978Z,102343.00
2022-08-09T00:13:51.294Z,102359.00
2022-08-09T00:16:26.240Z,102349.00
2022-08-09T00:19:09.475Z,102350.00
2022-08-09T00:21:56.089Z,102350.00
2022-08-09T00:24:27.325Z,102341.00
2022-08-09T00:26:56.053Z,102353.00
2022-08-09T00:29:39.613Z,102353.00
2022-08-09T00:32:12.994Z,102348.00
2022-08-09T00:34:53.129Z,102354.00
2022-08-09T00:37:20.254Z,102345.00
2022-08-09T00:40:09.656Z,102346.00
2022-08-09T00:44:25.872Z,102354.00
2022-08-09T00:45:21.992Z,102343.00
2022-08-09T00:47:49.751Z,102350.00
2022-08-09T00:50:16.994Z,102348.00
2022-08-09T00:52:44.261Z,102352.00
2022-08-09T00:55:32.822Z,102345.00
2022-08-09T00:58:00.071Z,102355.00
2022-08-09T01:00:28.659Z,102353.00
2022-08-09T01:03:20.354Z,102358.00
2022-08-09T01:06:53.337Z,102357.00
2022-08-09T01:09:48.481Z,102351.00
2022-08-09T01:12:38.605Z,102350.00
2022-08-09T01:15:16.918Z,102352.00
2022-08-09T01:17:57.639Z,102359.00
2022-08-09T01:21:00.610Z,102350.00
2022-08-09T01:24:01.748Z,102353.00
2022-08-09T01:27:00.106Z,102355.00
2022-08-09T01:30:03.737Z,102355.00
2022-08-09T01:32:38.937Z,102357.00
2022-08-09T01:35:28.631Z,102356.00
2022-08-09T01:38:14.951Z,102350.00
2022-08-09T01:41:05.324Z,102360.00
2022-08-09T01:43:41.888Z,102362.00
2022-08-09T01:46:24.790Z,102362.00
2022-08-09T01:49:00.013Z,102366.00
2022-08-09T01:51:32.406Z,102360.00
2022-08-09T01:54:07.140Z,102347.00
2022-08-09T01:56:39.005Z,102338.00
2022-08-09T01:59:16.067Z,102340.00
2022-08-09T02:01:59.810Z,102343.00
2022-08-09T02:04:32.644Z,102351.00
2022-08-09T02:08:34.675Z,102351.00
2022-08-09T02:10:28.624Z,102349.00
2022-08-09T02:13:04.243Z,102357.00
2022-08-09T02:15:49.260Z,102348.00
2022-08-09T02:18:26.961Z,102351.00
2022-08-09T02:21:06.026Z,102339.00
2022-08-09T02:23:48.675Z,102342.00
2022-08-09T02:26:25.032Z,102345.00
2022-08-09T02:29:05.540Z,102348.00
2022-08-09T02:31:43.703Z,102344.00
2022-08-09T02:34:40.259Z,102339.00
2022-08-09T02:37:16.345Z,102345.00
2022-08-09T02:40:01.736Z,102337.00
2022-08-09T02:42:41.401Z,102341.00
2022-08-09T02:45:28.902Z,102340.00
2022-08-09T02:48:03.324Z,102350.00
2022-08-09T02:50:38.345Z,102339.00
2022-08-09T02:53:25.791Z,102343.00
2022-08-09T02:55:59.155Z,102327.00
2022-08-09T02:58:37.443Z,102341.00
2022-08-09T03:01:10.833Z,102334.00
2022-08-09T03:04:17.231Z,102328.00
2022-08-09T03:06:30.479Z,102334.00
2022-08-09T03:09:00.416Z,102334.00
2022-08-09T03:12:04.724Z,102331.00
2022-08-09T03:14:18.903Z,102334.00
2022-08-09T03:16:49.994Z,102333.00
2022-08-09T03:19:59.384Z,102336.00
2022-08-09T03:22:12.505Z,102322.00
2022-08-09T03:25:21.842Z,102333.00
2022-08-09T03:27:46.740Z,102320.00
2022-08-09T03:30:29.877Z,102331.00
2022-08-09T03:33:18.602Z,102327.00
2022-08-09T03:36:12.613Z,102332.00
2022-08-09T03:38:43.598Z,102330.00
2022-08-09T03:41:15.860Z,102333.00
2022-08-09T03:44:03.454Z,102340.00
2022-08-09T03:46:34.066Z,102337.00
2022-08-09T03:49:08.777Z,102344.00
2022-08-09T03:51:56.364Z,102341.00
2022-08-09T03:54:38.895Z,102338.00
2022-08-09T03:57:18.369Z,102345.00
2022-08-09T03:59:54.751Z,102341.00
2022-08-09T04:02:27.988Z,102339.00
2022-08-09T04:05:05.968Z,102346.00
2022-08-09T04:07:52.866Z,102339.00
2022-08-09T04:10:28.764Z,102348.00
2022-08-09T04:13:04.245Z,102332.00
2022-08-09T04:16:18.350Z,102352.00
2022-08-09T04:18:21.426Z,102347.00
2022-08-09T04:20:50.822Z,102354.00
2022-08-09T04:23:23.316Z,102351.00
2022-08-09T04:25:54.542Z,102357.00
2022-08-09T04:28:33.647Z,102356.00
2022-08-09T04:31:09.712Z,102361.00
2022-08-09T04:33:51.638Z,102355.00
2022-08-09T04:36:26.210Z,102367.00
2022-08-09T04:38:55.644Z,102371.00
2022-08-09T04:41:32.001Z,102372.00
2022-08-09T04:44:06.950Z,102369.00
2022-08-09T04:46:57.586Z,102365.00
2022-08-09T04:49:40.638Z,102373.00
2022-08-09T04:52:22.142Z,102373.00
2022-08-09T04:55:04.151Z,102382.00
2022-08-09T04:57:54.432Z,102373.00
2022-08-09T05:00:22.047Z,102378.00
2022-08-09T05:02:52.696Z,102372.00
2022-08-09T05:05:31.852Z,102385.00
2022-08-09T05:08:08.644Z,102372.00
2022-08-09T05:10:36.604Z,102373.00
2022-08-09T05:13:04.215Z,102395.00
2022-08-09T05:15:39.434Z,102378.00
2022-08-09T05:18:38.008Z,102384.00
2022-08-09T05:21:02.788Z,102393.00
2022-08-09T05:23:54.028Z,102390.00
2022-08-09T05:26:36.355Z,102387.00
2022-08-09T05:29:17.551Z,102386.00
2022-08-09T05:32:00.285Z,102369.00
2022-08-09T05:34:31.886Z,102387.00
2022-08-09T05:37:07.362Z,102387.00
2022-08-09T05:39:43.690Z,102388.00
2022-08-09T05:42:17.469Z,102384.00
2022-08-09T05:44:54.099Z,102382.00
2022-08-09T05:47:25.190Z,102390.00
2022-08-09T05:50:23.734Z,102390.00
2022-08-09T05:52:44.505Z,102391.00
2022-08-09T05:55:23.981Z,102395.00
2022-08-09T05:57:57.183Z,102377.00
2022-08-09T06:00:28.991Z,102393.00
2022-08-09T06:02:58.799Z,102395.00
2022-08-09T06:05:50.288Z,102401.00
2022-08-09T06:08:19.431Z,102393.00
2022-08-09T06:10:53.925Z,102386.00
2022-08-09T06:13:21.764Z,102384.00
2022-08-09T06:15:51.490Z,102388.00
2022-08-09T06:18:23.944Z,102394.00
2022-08-09T06:20:57.838Z,102396.00
2022-08-09T06:23:58.661Z,102390.00
2022-08-09T06:26:22.503Z,102397.00
2022-08-09T06:29:00.298Z,102390.00
2022-08-09T06:31:39.221Z,102400.00
2022-08-09T06:34:08.066Z,102400.00
2022-08-09T06:36:37.448Z,102404.00
2022-08-09T06:39:12.667Z,102391.00
2022-08-09T06:42:08.530Z,102400.00
2022-08-09T06:44:27.834Z,102398.00
2022-08-09T06:46:55.221Z,102401.00
2022-08-09T06:49:44.909Z,102399.00
2022-08-09T06:52:11.976Z,102399.00
2022-08-09T06:54:41.152Z,102407.00
2022-08-09T06:57:08.691Z,102399.00
2022-08-09T07:00:56.019Z,102405.00
2022-08-09T07:02:30.852Z,102406.00
2022-08-09T07:05:00.571Z,102411.00
2022-08-09T07:07:58.675Z,102402.00
2022-08-09T07:10:22.501Z,102404.00
2022-08-09T07:12:57.281Z,102403.00
2022-08-09T07:16:34.989Z,102397.00
2022-08-09T07:18:14.315Z,102397.00
2022-08-09T07:20:43.759Z,102383.00
2022-08-09T07:23:18.727Z,102403.00
2022-08-09T07:25:52.140Z,102397.00
2022-08-09T07:28:26.400Z,102398.00
2022-08-09T07:30:56.053Z,102395.00
2022-08-09T07:33:23.450Z,102401.00
2022-08-09T07:35:53.982Z,102397.00
2022-08-09T07:38:23.496Z,102394.00
2022-08-09T07:41:08.388Z,102404.00
2022-08-09T07:43:40.990Z,102395.00
2022-08-09T07:46:10.773Z,102399.00
2022-08-09T07:48:44.351Z,102397.00
2022-08-09T07:52:06.048Z,102399.00
2022-08-09T07:54:08.640Z,102404.00
2022-08-09T07:56:45.177Z,102409.00
2022-08-09T07:59:25.226Z,102415.00
2022-08-09T08:02:01.750Z,102421.00
2022-08-09T08:04:32.118Z,102423.00
2022-08-09T08:07:14.820Z,102419.00
2022-08-09T08:09:54.801Z,102418.00
2022-08-09T08:12:29.392Z,102411.00
2022-08-09T08:14:59.604Z,102402.00
2022-08-09T08:17:53.971Z,102408.00
2022-08-09T08:20:14.708Z,102405.00
2022-08-09T08:22:42.248Z,102414.00
2022-08-09T08:25:13.665Z,102420.00
2022-08-09T08:27:43.307Z,102419.00
2022-08-09T08:30:13.926Z,102428.00
2022-08-09T08:32:53.579Z,102430.00
2022-08-09T08:35:22.446Z,102416.00
2022-08-09T08:37:59.697Z,102419.00
2022-08-09T08:40:35.696Z,102415.00
2022-08-09T08:43:08.679Z,102425.00
2022-08-09T08:46:03.761Z,102434.00
2022-08-09T08:48:37.923Z,102423.00
2022-08-09T08:51:07.195Z,102422.00
2022-08-09T08:53:37.306Z,102420.00
2022-08-09T08:56:07.114Z,102417.00
2022-08-09T08:58:36.191Z,102426.00
2022-08-09T09:01:08.755Z,102421.00
2022-08-09T09:03:50.546Z,102430.00
2022-08-09T09:06:19.618Z,102424.00
2022-08-09T09:08:52.336Z,102421.00
2022-08-09T09:11:21.166Z,102418.00
2022-08-09T09:13:56.645Z,102419.00
2022-08-09T09:16:34.753Z,102419.00
2022-08-09T09:22:15.846Z,102428.00
2022-08-09T09:24:49.176Z,102429.00
2022-08-09T09:28:06.556Z,102431.00
2022-08-09T09:30:34.569Z,102427.00
2022-08-09T09:33:17.014Z,102438.00
2022-08-09T09:36:02.190Z,102426.00
2022-08-09T09:38:56.942Z,102423.00
2022-08-09T09:41:25.414Z,102425.00
2022-08-09T09:44:12.513Z,102436.00
2022-08-09T09:46:50.750Z,102443.00
2022-08-09T09:49:56.071Z,102437.00
2022-08-09T09:52:16.266Z,102430.00
2022-08-09T09:55:24.137Z,102427.00
2022-08-09T09:58:17.246Z,102436.00
2022-08-09T10:00:59.140Z,102440.00
2022-08-09T10:04:03.228Z,102441.00
2022-08-09T10:06:43.599Z,102440.00
2022-08-09T10:09:22.905Z,102427.00
2022-08-09T10:12:12.864Z,102430.00
2022-08-09T10:14:51.502Z,102434.00
2022-08-09T10:17:40.408Z,102433.00
2022-08-09T10:20:35.695Z,102437.00
2022-08-09T10:23:20.208Z,102434.00
2022-08-09T10:26:06.921Z,102426.00
2022-08-09T10:28:40.210Z,102433.00
2022-08-09T10:34:08.038Z,102425.00
2022-08-09T10:36:39.995Z,102413.00
2022-08-09T10:39:15.972Z,102425.00
2022-08-09T10:41:47.639Z,102429.00
2022-08-09T10:44:23.090Z,102431.00
2022-08-09T10:48:14.241Z,102422.00
2022-08-09T10:50:32.764Z,102409.00
2022-08-09T10:53:46.796Z,102412.00
2022-08-09T10:56:26.568Z,102412.00
2022-08-09T10:58:58.014Z,102424.00
2022-08-09T11:03:15.880Z,102418.00
2022-08-09T11:04:32.673Z,102416.00
2022-08-09T11:07:00.969Z,102410.00
2022-08-09T11:09:47.462Z,102421.00
2022-08-09T11:12:29.356Z,102403.00
2022-08-09T11:15:23.956Z,102404.00
2022-08-09T11:18:02.660Z,102401.00
2022-08-09T11:20:49.910Z,102404.00
2022-08-09T11:23:24.114Z,102387.00
2022-08-09T11:25:57.646Z,102384.00
2022-08-09T11:28:56.351Z,102396.00
2022-08-09T11:31:52.779Z,102391.00
2022-08-09T11:34:42.959Z,102384.00
2022-08-09T11:37:22.758Z,102384.00
2022-08-09T11:40:07.343Z,102388.00
2022-08-09T11:42:43.953Z,102389.00
2022-08-09T11:45:43.637Z,102377.00
2022-08-09T11:48:26.495Z,102381.00
2022-08-09T11:52:36.712Z,102372.00
2022-08-09T11:53:58.999Z,102373.00
2022-08-09T11:56:47.740Z,102375.00
2022-08-09T11:59:29.937Z,102378.00
2022-08-09T12:02:17.753Z,102371.00
2022-08-09T12:04:45.891Z,102364.00
2022-08-09T12:07:14.296Z,102369.00
2022-08-09T12:09:50.364Z,102359.00
2022-08-09T12:12:20.483Z,102364.00
2022-08-09T12:15:07.950Z,102356.00
2022-08-09T12:17:43.642Z,102364.00
2022-08-09T12:20:27.857Z,102355.00
2022-08-09T12:23:00.148Z,102345.00
2022-08-09T12:25:37.251Z,102356.00
2022-08-09T12:29:10.128Z,102344.00
2022-08-09T12:31:30.893Z,102350.00
2022-08-09T12:34:14.408Z,102333.00
2022-08-09T12:36:53.068Z,102341.00
2022-08-09T12:39:26.609Z,102334.00
2022-08-09T12:41:55.032Z,102341.00
2022-08-09T12:44:24.520Z,102333.00
2022-08-09T12:46:52.206Z,102344.00
2022-08-09T12:49:22.296Z,102342.00
2022-08-09T12:52:02.150Z,102345.00
2022-08-09T12:55:03.159Z,102335.00
2022-08-09T12:57:47.116Z,102334.00
2022-08-09T13:00:25.821Z,102326.00
2022-08-09T13:03:00.444Z,102326.00
2022-08-09T13:06:10.638Z,102321.00
2022-08-09T13:08:40.342Z,102325.00
2022-08-09T13:11:13.286Z,102313.00
2022-08-09T13:14:42.562Z,102322.00
2022-08-09T13:16:46.692Z,102311.00
2022-08-09T13:20:10.183Z,102317.00
2022-08-09T13:23:05.164Z,102316.00
2022-08-09T13:25:55.127Z,102320.00
2022-08-09T13:28:33.891Z,102314.00
2022-08-09T13:32:14.908Z,102306.00
2022-08-09T13:34:00.421Z,102304.00
2022-08-09T13:36:42.485Z,102315.00
2022-08-09T13:41:55.681Z,102304.00
2022-08-09T13:42:11.837Z,102306.00
2022-08-09T13:44:41.953Z,102300.00
2022-08-09T13:47:27.452Z,102296.00
2022-08-09T13:50:12.712Z,102291.00
2022-08-09T13:52:47.822Z,102299.00
2022-08-09T13:55:17.840Z,102297.00
2022-08-09T13:57:56.357Z,102281.00
2022-08-09T14:00:28.537Z,102284.00
2022-08-09T14:03:02.828Z,102276.00
2022-08-09T14:05:56.957Z,102285.00
2022-08-09T14:08:30.761Z,102285.00
2022-08-09T14:11:00.496Z,102281.00
2022-08-09T14:14:22.680Z,102282.00
2022-08-09T14:16:28.565Z,102281.00
2022-08-09T14:18:57.372Z,102285.00
2022-08-09T14:21:29.323Z,102286.00
2022-08-09T14:23:57.709Z,102281.00
2022-08-09T14:26:32.524Z,102291.00
2022-08-09T14:29:25.831Z,102290.00
2022-08-09T14:31:55.561Z,102271.00
2022-08-09T14:34:32.034Z,102277.00
2022-08-09T14:37:07.462Z,102277.00
2022-08-09T14:39:46.182Z,102273.00
2022-08-09T14:42:30.565Z,102267.00
2022-08-09T14:46:39.643Z,102274.00
2022-08-09T14:47:58.924Z,102266.00
2022-08-09T14:50:33.089Z,102269.00
2022-08-09T14:53:11.607Z,102274.00
2022-08-09T14:55:49.880Z,102270.00
2022-08-09T14:58:18.445Z,102266.00
2022-08-09T15:01:05.480Z,102262.00
2022-08-09T15:03:33.136Z,102262.00
2022-08-09T15:06:03.986Z,102261.00
2022-08-09T15:08:31.642Z,102266.00
2022-08-09T15:11:01.206Z,102262.00
2022-08-09T15:13:48.502Z,102265.00
2022-08-09T15:16:21.794Z,102259.00
2022-08-09T15:18:52.249Z,102260.00
2022-08-09T15:21:57.801Z,102265.00
2022-08-09T15:24:12.765Z,102267.00
2022-08-09T15:26:45.963Z,102268.00
2022-08-09T15:30:57.251Z,102262.00
2022-08-09T15:32:02.181Z,102257.00
2022-08-09T15:34:32.769Z,102255.00
2022-08-09T15:37:23.861Z,102263.00
2022-08-09T15:39:55.014Z,102261.00
2022-08-09T15:42:23.423Z,102266.00
2022-08-09T15:44:51.545Z,102260.00
2022-08-09T15:47:31.678Z,102262.00
2022-08-09T15:50:13.148Z,102249.00
2022-08-09T15:52:42.215Z,102253.00
2022-08-09T15:55:24.738Z,102249.00
2022-08-09T15:57:52.518Z,102258.00
2022-08-09T16:00:26.102Z,102244.00
2022-08-09T16:02:56.731Z,102241.00
2022-08-09T16:05:47.673Z,102242.00
2022-08-09T16:08:29.950Z,102249.00
2022-08-09T16:11:01.652Z,102243.00
2022-08-09T16:14:04.782Z,102242.00
2022-08-09T16:16:26.303Z,102237.00
2022-08-09T16:18:55.835Z,102243.00
2022-08-09T16:21:26.133Z,102234.00
2022-08-09T16:23:58.359Z,102233.00
2022-08-09T16:26:33.518Z,102233.00
2022-08-09T16:29:11.465Z,102233.00
2022-08-09T16:32:18.668Z,102236.00
2022-08-09T16:34:55.839Z,102243.00
2022-08-09T16:37:55.380Z,102243.00
2022-08-09T16:40:13.456Z,102236.00
2022-08-09T16:42:45.522Z,102239.00
2022-08-09T16:45:18.840Z,102234.00
2022-08-09T16:48:42.505Z,102231.00
2022-08-09T16:50:38.149Z,102244.00
2022-08-09T16:53:05.966Z,102241.00
2022-08-09T16:55:59.923Z,102243.00
2022-08-09T16:58:21.053Z,102245.00
2022-08-09T17:00:49.315Z,102245.00
2022-08-09T17:03:21.603Z,102240.00
2022-08-09T17:06:07.643Z,102241.00
2022-08-09T17:08:47.005Z,102236.00
2022-08-09T17:11:40.029Z,102231.00
2022-08-09T17:14:25.606Z,102238.00
2022-08-09T17:16:59.533Z,102236.00
2022-08-09T17:20:05.958Z,102238.00
2022-08-09T17:22:33.791Z,102243.00
2022-08-09T17:25:11.958Z,102238.00
2022-08-09T17:27:49.573Z,102250.00
2022-08-09T17:30:25.549Z,102242.00
2022-08-09T17:33:05.087Z,102230.00
2022-08-09T17:35:44.940Z,102246.00
2022-08-09T17:38:30.668Z,102238.00
2022-08-09T17:41:00.272Z,102242.00
2022-08-09T17:43:34.657Z,102240.00
2022-08-09T17:46:08.764Z,102246.00
2022-08-09T17:48:51.973Z,102253.00
2022-08-09T17:51:20.119Z,102255.00
2022-08-09T17:53:54.926Z,102252.00
2022-08-09T17:56:28.815Z,102258.00
2022-08-09T17:59:03.039Z,102259.00
2022-08-09T18:02:06.083Z,102255.00
2022-08-09T18:04:20.380Z,102265.00
2022-08-09T18:06:49.927Z,102265.00
2022-08-09T18:09:41.002Z,102266.00
2022-08-09T18:12:19.751Z,102262.00
2022-08-09T18:14:54.982Z,102259.00
2022-08-09T18:18:03.768Z,102279.00
2022-08-09T18:20:57.359Z,102270.00
2022-08-09T18:23:04.911Z,102282.00
2022-08-09T18:25:50.285Z,102289.00
2022-08-09T18:30:35.021Z,102277.00
2022-08-09T18:31:08.067Z,102283.00
2022-08-09T18:33:36.231Z,102273.00
2022-08-09T18:36:04.351Z,102278.00
2022-08-09T18:38:31.618Z,102275.00
2022-08-09T18:40:58.902Z,102284.00
2022-08-09T18:43:26.421Z,102275.00
2022-08-09T18:46:47.501Z,102292.00
2022-08-09T18:48:42.281Z,102286.00
2022-08-09T18:51:10.094Z,102300.00
2022-08-09T18:53:56.350Z,102300.00
2022-08-09T18:56:27.871Z,102291.00
2022-08-09T18:58:57.315Z,102295.00
2022-08-09T19:01:25.945Z,102298.00
2022-08-09T19:04:06.068Z,102293.00
2022-08-09T19:06:37.679Z,102289.00
2022-08-09T19:09:13.642Z,102303.00
2022-08-09T19:11:58.030Z,102296.00
2022-08-09T19:14:29.321Z,102300.00
2022-08-09T19:16:59.747Z,102302.00
2022-08-09T19:19:28.415Z,102306.00
2022-08-09T19:22:08.592Z,102315.00
2022-08-09T19:25:09.082Z,102320.00
2022-08-09T19:27:28.685Z,102317.00
2022-08-09T19:30:22.403Z,102315.00
2022-08-09T19:32:44.384Z,102320.00
2022-08-09T19:35:11.704Z,102325.00
2022-08-09T19:37:52.810Z,102326.00
2022-08-09T19:40:22.749Z,102318.00
2022-08-09T19:42:50.314Z,102314.00
2022-08-09T19:45:18.596Z,102322.00
2022-08-09T19:47:45.968Z,102311.00
2022-08-09T19:50:49.674Z,102322.00
2022-08-09T19:53:02.519Z,102317.00
2022-08-09T19:56:02.163Z,102314.00
2022-08-09T19:58:30.207Z,102317.00
2022-08-09T20:00:58.349Z,102317.00
2022-08-09T20:04:10.484Z,102319.00
2022-08-09T20:06:23.786Z,102325.00
2022-08-09T20:08:57.755Z,102315.00
2022-08-09T20:11:33.726Z,102324.00
2022-08-09T20:14:13.143Z,102322.00
2022-08-09T20:16:53.353Z,102324.00
2022-08-09T20:19:48.775Z,102331.00
2022-08-09T20:22:14.454Z,102320.00
2022-08-09T20:24:43.189Z,102319.00
2022-08-09T20:27:21.645Z,102323.00
2022-08-09T20:29:49.415Z,102311.00
2022-08-09T20:32:42.037Z,102321.00
2022-08-09T20:35:06.608Z,102323.00
2022-08-09T20:38:20.382Z,102309.00
2022-08-09T20:40:26.367Z,102306.00
2022-08-09T20:43:12.050Z,102309.00
2022-08-09T20:45:56.825Z,102305.00
2022-08-09T20:48:25.937Z,102306.00
2022-08-09T20:50:58.389Z,102312.00
2022-08-09T20:53:36.822Z,102307.00
2022-08-09T20:56:20.271Z,102311.00
2022-08-09T20:58:57.790Z,102317.00
2022-08-09T21:01:34.652Z,102311.00
2022-08-09T21:05:50.880Z,102320.00
2022-08-09T21:07:12.043Z,102317.00
2022-08-09T21:09:56.153Z,102317.00
2022-08-09T21:12:32.232Z,102318.00
2022-08-09T21:15:02.683Z,102319.00
2022-08-09T21:18:21.374Z,102328.00
2022-08-09T21:20:22.791Z,102324.00
2022-08-09T21:22:54.839Z,102311.00
2022-08-09T21:25:44.271Z,102320.00
2022-08-09T21:28:33.158Z,102326.00
2022-08-09T21:31:17.697Z,102331.00
2022-08-09T21:33:52.743Z,102329.00
2022-08-09T21:36:29.003Z,102336.00
2022-08-09T21:38:59.358Z,102335.00
2022-08-09T21:42:03.604Z,102328.00
2022-08-09T21:44:33.918Z,102338.00
2022-08-09T21:47:04.909Z,102329.00
2022-08-09T21:49:40.032Z,102344.00
2022-08-09T21:52:17.982Z,102348.00
2022-08-09T21:55:03.013Z,102347.00
2022-08-09T21:57:39.148Z,102342.00
2022-08-09T22:00:33.271Z,102357.00
2022-08-09T22:03:05.823Z,102348.00
2022-08-09T22:05:37.360Z,102358.00
2022-08-09T22:08:13.856Z,102360.00
2022-08-09T22:11:00.602Z,102351.00
2022-08-09T22:13:34.602Z,102346.00
2022-08-09T22:16:08.321Z,102362.00
2022-08-09T22:18:43.966Z,102355.00
2022-08-09T22:21:45.309Z,102358.00
2022-08-09T22:24:17.167Z,102364.00
2022-08-09T22:26:51.421Z,102356.00
2022-08-09T22:29:19.407Z,102361.00
2022-08-09T22:31:56.204Z,102363.00
2022-08-09T22:34:27.046Z,102359.00
2022-08-09T22:36:59.273Z,102361.00
2022-08-09T22:39:57.157Z,102353.00
2022-08-09T22:42:22.172Z,102360.00
2022-08-09T22:48:04.621Z,102369.00
2022-08-09T22:48:11.357Z,102358.00
2022-08-09T22:50:31.196Z,102361.00
2022-08-09T22:52:59.816Z,102365.00
2022-08-09T22:56:06.524Z,102364.00
2022-08-09T22:58:20.256Z,102353.00
2022-08-09T23:01:02.571Z,102360.00
2022-08-09T23:04:03.378Z,102357.00
2022-08-09T23:06:35.204Z,102360.00
2022-08-09T23:09:07.466Z,102361.00
2022-08-09T23:11:35.175Z,102365.00
2022-08-09T23:14:03.664Z,102355.00
2022-08-09T23:16:31.607Z,102346.00
2022-08-09T23:18:59.005Z,102362.00
2022-08-09T23:21:30.062Z,102362.00
2022-08-09T23:24:05.995Z,102348.00
2022-08-09T23:26:39.026Z,102344.00
2022-08-09T23:29:10.158Z,102353.00
2022-08-09T23:31:37.835Z,102335.00
2022-08-09T23:34:05.172Z,102348.00
2022-08-09T23:36:35.206Z,102342.00
2022-08-09T23:39:05.181Z,102337.00
2022-08-09T23:41:32.877Z,102319.00
2022-08-09T23:44:02.003Z,102326.00
2022-08-09T23:46:30.539Z,102333.00
2022-08-09T23:48:59.357Z,102325.00
2022-08-09T23:51:28.118Z,102331.00
2022-08-09T23:54:02.528Z,102328.00
2022-08-09T23:56:52.422Z,102338.00
2022-08-09T23:59:23.218Z,102334.00
